Time;durP1;ratioP1;P1;durP2;ratioP2;P2;SDS_P1;SDS_P2;PMS_P1;PMS_P2;Temp;Humidity;BMP_temperature;BMP_pressure;BME280_temperature;BME280_humidity;BME280_pressure;Samples;Min_cycle;Max_cycle;Signal;HPM_P1;HPM_P2
2022/04/27 00:01:36;;;;;;;1.00;1.00;;;10.40;99.90;;;;;;5076228;28;20203;-64
2022/04/27 00:04:03;;;;;;;1.00;1.00;;;10.30;99.90;;;;;;5084366;28;20222;-65
2022/04/27 00:06:30;;;;;;;1.13;1.10;;;10.40;99.90;;;;;;5093312;28;20203;-64
2022/04/27 00:08:57;;;;;;;1.00;1.00;;;10.30;99.90;;;;;;5085039;28;20301;-65
2022/04/27 00:11:24;;;;;;;1.00;1.00;;;10.40;99.90;;;;;;5081729;28;20223;-65
2022/04/27 00:13:53;;;;;;;0.87;0.87;;;10.40;99.90;;;;;;5084486;28;20221;-63
2022/04/27 00:16:20;;;;;;;1.00;1.00;;;10.50;99.90;;;;;;5084404;28;20645;-67
2022/04/27 00:18:47;;;;;;;0.90;0.90;;;10.50;99.90;;;;;;5076903;28;20213;-64
2022/04/27 00:21:14;;;;;;;1.00;1.00;;;10.50;99.90;;;;;;5081106;28;20203;-67
2022/04/27 00:23:41;;;;;;;0.90;0.90;;;10.60;99.90;;;;;;5084903;28;20218;-64
2022/04/27 00:26:09;;;;;;;1.07;1.07;;;10.50;99.90;;;;;;5081191;28;20234;-64
2022/04/27 00:28:36;;;;;;;0.87;0.87;;;10.50;99.90;;;;;;5078764;28;20252;-66
2022/04/27 00:31:04;;;;;;;1.00;1.00;;;10.50;99.90;;;;;;5076811;28;20251;-64
2022/04/27 00:33:32;;;;;;;1.17;1.17;;;10.60;99.90;;;;;;5074912;28;20219;-66
2022/04/27 00:35:59;;;;;;;1.20;1.20;;;10.50;99.90;;;;;;5076481;28;20196;-63
2022/04/27 00:38:26;;;;;;;1.17;1.17;;;10.50;99.90;;;;;;5074960;28;20869;-65
2022/04/27 00:40:53;;;;;;;1.00;1.00;;;10.40;99.90;;;;;;5082973;28;20195;-65
2022/04/27 00:43:35;;;;;;;1.20;1.20;;;10.40;99.90;;;;;;5075308;28;20283;-65
2022/04/27 00:46:04;;;;;;;1.10;1.10;;;10.40;99.90;;;;;;5073349;28;20191;-66
2022/04/27 00:48:31;;;;;;;1.10;1.10;;;10.40;99.90;;;;;;5070972;28;20215;-66
2022/04/27 00:51:02;;;;;;;1.20;1.20;;;10.40;99.90;;;;;;5071836;28;20310;-65
2022/04/27 00:53:29;;;;;;;1.20;1.20;;;10.40;99.90;;;;;;5071168;28;20234;-66
2022/04/27 00:55:57;;;;;;;1.10;1.10;;;10.40;99.90;;;;;;5071963;28;20198;-65
2022/04/27 00:58:26;;;;;;;1.00;1.00;;;10.40;99.90;;;;;;5071384;28;20313;-64
2022/04/27 01:00:52;;;;;;;1.03;1.03;;;10.40;99.90;;;;;;5072089;28;20290;-65
2022/04/27 01:03:21;;;;;;;1.07;1.07;;;10.50;99.90;;;;;;5071763;28;20202;-64
2022/04/27 01:05:49;;;;;;;1.03;1.03;;;10.50;99.90;;;;;;5067646;28;20711;-63
2022/04/27 01:08:17;;;;;;;1.40;1.30;;;10.50;99.90;;;;;;5071274;28;20214;-65
2022/04/27 01:10:47;;;;;;;1.10;1.10;;;10.50;99.90;;;;;;5072692;28;20223;-65
2022/04/27 01:13:14;;;;;;;1.00;1.00;;;10.60;99.90;;;;;;5073133;28;20286;-64
2022/04/27 01:15:41;;;;;;;1.00;1.00;;;10.60;99.90;;;;;;5075212;28;20237;-65
2022/04/27 01:18:09;;;;;;;1.00;1.00;;;10.50;99.90;;;;;;5072368;28;20290;-64
2022/04/27 01:20:38;;;;;;;1.10;1.10;;;10.50;99.90;;;;;;5071374;28;20363;-63
2022/04/27 01:23:06;;;;;;;1.27;1.27;;;10.50;99.90;;;;;;5071843;28;20422;-64
2022/04/27 01:25:54;;;;;;;1.10;1.10;;;10.60;99.90;;;;;;5071158;28;20231;-65
2022/04/27 01:28:22;;;;;;;1.20;1.20;;;10.50;99.90;;;;;;5071438;28;20200;-64
2022/04/27 01:30:56;;;;;;;1.30;1.30;;;10.40;99.90;;;;;;5071387;28;20727;-64
2022/04/27 01:33:23;;;;;;;1.30;1.30;;;10.30;99.90;;;;;;5071685;28;20210;-64
2022/04/27 01:35:52;;;;;;;1.30;1.30;;;10.30;99.90;;;;;;5071240;28;20211;-64
2022/04/27 01:38:19;;;;;;;1.30;1.30;;;10.30;99.90;;;;;;5070863;28;20207;-63
2022/04/27 01:40:46;;;;;;;1.40;1.40;;;10.30;99.90;;;;;;5070880;28;20208;-65
2022/04/27 01:43:15;;;;;;;1.40;1.40;;;10.10;99.90;;;;;;5070631;28;20292;-65
2022/04/27 01:45:43;;;;;;;1.27;1.27;;;10.10;99.90;;;;;;5071171;28;20203;-64
2022/04/27 01:48:11;;;;;;;1.30;1.30;;;10.20;99.90;;;;;;5070393;28;20210;-65
2022/04/27 01:50:38;;;;;;;1.27;1.27;;;10.10;99.90;;;;;;5071412;28;20215;-65
2022/04/27 01:55:51;;;;;;;1.30;1.30;;;10.20;99.90;;;;;;5072191;28;20779;-63
2022/04/27 01:58:18;;;;;;;1.40;1.40;;;10.30;99.90;;;;;;5070747;28;20200;-66
2022/04/27 02:00:46;;;;;;;1.40;1.40;;;10.30;99.90;;;;;;5071521;28;20199;-65
2022/04/27 02:03:13;;;;;;;1.40;1.40;;;10.30;99.90;;;;;;5071012;28;20218;-64
2022/04/27 02:05:40;;;;;;;1.60;1.50;;;10.30;99.90;;;;;;5073409;28;20203;-64
2022/04/27 02:08:08;;;;;;;1.50;1.50;;;10.40;99.90;;;;;;5074157;28;20235;-65
2022/04/27 02:10:35;;;;;;;1.60;1.50;;;10.40;99.90;;;;;;5074598;28;20276;-66
2022/04/27 02:13:02;;;;;;;1.40;1.40;;;10.50;99.90;;;;;;5074623;28;20203;-66
2022/04/27 02:15:29;;;;;;;1.40;1.40;;;10.50;99.90;;;;;;5074473;28;20233;-65
2022/04/27 02:17:56;;;;;;;1.90;1.80;;;10.50;99.90;;;;;;5073829;28;20630;-66
2022/04/27 02:20:23;;;;;;;1.90;1.80;;;10.40;99.90;;;;;;5074179;28;20203;-65
2022/04/27 02:22:50;;;;;;;1.90;1.80;;;10.30;99.90;;;;;;5074725;28;20697;-65
2022/04/27 02:25:19;;;;;;;2.03;1.93;;;10.20;99.90;;;;;;5074306;28;20314;-66
2022/04/27 02:27:47;;;;;;;1.73;1.63;;;10.10;99.90;;;;;;5073873;28;20292;-66
2022/04/27 02:30:14;;;;;;;1.60;1.60;;;10.10;99.90;;;;;;5079250;28;20223;-66
2022/04/27 02:32:41;;;;;;;1.60;1.60;;;10.20;99.90;;;;;;5088057;28;20237;-65
2022/04/27 02:35:09;;;;;;;1.50;1.50;;;10.20;99.90;;;;;;5091496;28;20226;-63
2022/04/27 02:37:37;;;;;;;1.60;1.60;;;10.30;99.90;;;;;;5087157;28;20313;-64
2022/04/27 02:40:06;;;;;;;1.40;1.40;;;10.40;99.90;;;;;;5096861;28;20241;-65
2022/04/27 02:42:34;;;;;;;1.70;1.60;;;10.40;99.90;;;;;;5096990;28;20203;-64
2022/04/27 02:45:01;;;;;;;1.50;1.50;;;10.40;99.90;;;;;;5094168;28;20222;-64
2022/04/27 02:47:28;;;;;;;1.77;1.70;;;10.40;99.90;;;;;;5093370;28;20205;-65
2022/04/27 02:52:39;;;;;;;1.60;1.60;;;10.40;99.90;;;;;;5093818;28;20267;-63
2022/04/27 02:55:07;;;;;;;1.80;1.70;;;10.50;99.90;;;;;;5093771;28;20241;-66
2022/04/27 02:57:35;;;;;;;1.50;1.50;;;10.50;99.90;;;;;;5093502;28;20198;-70
2022/04/27 03:00:02;;;;;;;1.60;1.60;;;10.50;99.90;;;;;;5093757;28;20293;-64
2022/04/27 03:02:29;;;;;;;1.50;1.50;;;10.50;99.90;;;;;;5081071;28;20276;-66
2022/04/27 03:04:56;;;;;;;1.97;1.87;;;10.50;99.90;;;;;;5084966;28;20282;-64
2022/04/27 03:07:22;;;;;;;1.40;1.40;;;10.60;99.90;;;;;;5094289;28;20667;-63
2022/04/27 03:09:50;;;;;;;1.40;1.40;;;10.70;99.90;;;;;;5094562;28;20687;-65
2022/04/27 03:12:17;;;;;;;1.40;1.40;;;10.70;99.90;;;;;;5094813;28;20215;-66
2022/04/27 03:14:45;;;;;;;1.50;1.50;;;10.70;99.90;;;;;;5094377;28;20233;-65
2022/04/27 03:17:12;;;;;;;1.00;1.00;;;10.60;99.90;;;;;;5093646;28;20289;-65
2022/04/27 03:19:38;;;;;;;1.03;1.03;;;10.60;99.90;;;;;;5094803;28;20285;-64
2022/04/27 03:22:06;;;;;;;1.20;1.20;;;10.60;99.90;;;;;;5095081;28;20253;-66
2022/04/27 03:24:34;;;;;;;1.00;1.00;;;10.60;99.90;;;;;;5096157;28;20234;-66
2022/04/27 03:27:01;;;;;;;1.27;1.27;;;10.60;99.90;;;;;;5101460;28;20668;-64
2022/04/27 03:29:28;;;;;;;1.10;1.10;;;10.60;99.90;;;;;;5099881;28;20238;-65
2022/04/27 03:31:57;;;;;;;1.40;1.40;;;10.60;99.90;;;;;;5095762;28;20250;-64
2022/04/27 03:34:23;;;;;;;1.30;1.30;;;10.60;99.90;;;;;;5094808;28;20309;-65
2022/04/27 03:36:50;;;;;;;1.20;1.20;;;10.60;99.90;;;;;;5094681;28;20737;-64
2022/04/27 03:39:17;;;;;;;1.20;1.20;;;10.60;99.90;;;;;;5094702;28;20297;-67
2022/04/27 03:41:44;;;;;;;1.40;1.40;;;10.60;99.90;;;;;;5097731;28;20198;-64
2022/04/27 03:44:11;;;;;;;1.30;1.30;;;10.60;99.90;;;;;;5094531;28;20250;-66
2022/04/27 03:46:38;;;;;;;1.40;1.40;;;10.70;99.90;;;;;;5094399;28;20294;-65
2022/04/27 03:49:06;;;;;;;1.20;1.20;;;10.70;99.90;;;;;;5094053;28;20210;-65
2022/04/27 03:51:33;;;;;;;1.23;1.23;;;10.70;99.90;;;;;;5093839;28;20309;-64
2022/04/27 03:54:00;;;;;;;1.20;1.20;;;10.70;99.90;;;;;;5093791;28;20266;-65
2022/04/27 03:56:27;;;;;;;1.10;1.10;;;10.70;99.90;;;;;;5092277;28;20238;-64
2022/04/27 03:58:54;;;;;;;1.13;1.13;;;10.70;99.90;;;;;;5091703;28;20622;-65
2022/04/27 04:01:20;;;;;;;1.23;1.23;;;10.60;99.90;;;;;;5092274;28;20202;-66
2022/04/27 04:03:47;;;;;;;1.30;1.30;;;10.60;99.90;;;;;;5091983;28;20227;-64
2022/04/27 04:06:16;;;;;;;1.13;1.13;;;10.60;99.90;;;;;;5093550;28;20293;-66
2022/04/27 04:08:42;;;;;;;1.27;1.27;;;10.60;99.90;;;;;;5091220;28;20218;-64
2022/04/27 04:11:11;;;;;;;1.27;1.27;;;10.60;99.90;;;;;;5092967;28;20313;-64
2022/04/27 04:13:38;;;;;;;1.30;1.20;;;10.60;99.90;;;;;;5092113;28;20233;-65
2022/04/27 04:16:06;;;;;;;1.30;1.30;;;10.60;99.90;;;;;;5092883;28;20209;-64
2022/04/27 04:18:32;;;;;;;1.30;1.30;;;10.60;99.90;;;;;;5092154;28;20244;-67
2022/04/27 04:20:59;;;;;;;1.20;1.20;;;10.60;99.90;;;;;;5092545;28;20205;-65
2022/04/27 04:23:28;;;;;;;1.20;1.20;;;10.60;99.90;;;;;;5092697;28;20237;-65
2022/04/27 04:28:39;;;;;;;1.43;1.40;;;10.60;99.90;;;;;;5091818;28;20201;-64
2022/04/27 04:31:06;;;;;;;1.30;1.20;;;10.60;99.90;;;;;;5087962;28;20354;-64
2022/04/27 04:33:33;;;;;;;1.30;1.30;;;10.60;99.90;;;;;;5083930;28;20731;-65
2022/04/27 04:36:00;;;;;;;1.63;1.53;;;10.60;99.90;;;;;;5085585;28;20329;-66
2022/04/27 04:38:28;;;;;;;1.30;1.30;;;10.70;99.90;;;;;;5082401;28;20222;-64
2022/04/27 04:40:55;;;;;;;1.30;1.30;;;10.60;99.90;;;;;;5091999;28;20285;-66
2022/04/27 04:43:22;;;;;;;1.40;1.40;;;10.70;99.90;;;;;;5091584;28;20645;-65
2022/04/27 04:45:49;;;;;;;1.47;1.40;;;10.70;99.90;;;;;;5091228;28;20240;-67
2022/04/27 04:48:16;;;;;;;1.30;1.30;;;10.70;99.90;;;;;;5090332;28;20217;-64
2022/04/27 04:50:43;;;;;;;1.30;1.30;;;10.70;99.90;;;;;;5087770;28;20318;-65
2022/04/27 04:53:09;;;;;;;1.20;1.20;;;10.70;99.90;;;;;;5089322;28;20277;-65
2022/04/27 04:55:38;;;;;;;1.23;1.23;;;10.80;99.90;;;;;;5106593;22;20223;-60
2022/04/27 04:58:05;;;;;;;1.57;1.47;;;10.70;99.90;;;;;;5085195;28;20653;-61
2022/04/27 05:00:32;;;;;;;1.67;1.57;;;10.70;99.90;;;;;;5079267;28;20198;-61
2022/04/27 05:02:59;;;;;;;1.47;1.47;;;10.70;99.90;;;;;;5087386;28;20267;-61
2022/04/27 05:05:26;;;;;;;1.50;1.50;;;10.70;99.90;;;;;;5069711;28;20243;-60
2022/04/27 05:07:53;;;;;;;1.70;1.40;;;10.80;99.90;;;;;;5063078;28;20235;-61
2022/04/27 05:10:20;;;;;;;1.27;1.27;;;10.90;99.90;;;;;;5067156;28;20207;-60
2022/04/27 05:12:48;;;;;;;1.50;1.40;;;10.90;99.90;;;;;;5070255;28;20696;-61
2022/04/27 05:15:15;;;;;;;1.30;1.30;;;10.90;99.90;;;;;;5066279;28;20733;-62
2022/04/27 05:17:42;;;;;;;1.40;1.40;;;10.90;99.90;;;;;;5069379;28;20234;-63
2022/04/27 05:20:10;;;;;;;1.20;1.20;;;11.00;99.90;;;;;;5071296;28;20230;-61
2022/04/27 05:22:39;;;;;;;1.30;1.30;;;10.90;99.90;;;;;;5072564;28;20264;-62
2022/04/27 05:25:08;;;;;;;1.30;1.30;;;10.90;99.90;;;;;;5061466;28;20230;-62
2022/04/27 05:27:35;;;;;;;1.40;1.40;;;11.00;99.90;;;;;;5069905;28;20199;-61
2022/04/27 05:32:49;;;;;;;1.50;1.50;;;10.90;99.90;;;;;;5067537;28;20206;-60
2022/04/27 05:35:16;;;;;;;1.63;1.53;;;11.00;99.90;;;;;;5068925;28;20253;-61
2022/04/27 05:37:43;;;;;;;1.50;1.50;;;10.90;99.90;;;;;;5073734;28;20200;-62
2022/04/27 05:40:12;;;;;;;1.73;1.63;;;10.90;99.90;;;;;;5077636;28;20224;-62
2022/04/27 05:42:39;;;;;;;1.80;1.70;;;11.00;99.90;;;;;;5088458;28;20203;-61
2022/04/27 05:45:10;;;;;;;1.90;1.80;;;10.90;99.90;;;;;;5079914;28;20278;-62
2022/04/27 05:47:37;;;;;;;1.40;1.40;;;10.90;99.90;;;;;;5069979;28;20291;-61
2022/04/27 05:50:05;;;;;;;1.50;1.50;;;10.90;99.90;;;;;;5076662;28;20234;-61
2022/04/27 05:52:32;;;;;;;1.53;1.53;;;10.90;99.90;;;;;;5068392;28;20223;-62
2022/04/27 05:55:00;;;;;;;1.50;1.40;;;10.90;99.90;;;;;;5063383;28;20231;-61
2022/04/27 05:57:27;;;;;;;1.40;1.40;;;10.90;99.90;;;;;;5076775;28;20291;-61
2022/04/27 05:59:54;;;;;;;1.60;1.50;;;10.90;99.90;;;;;;5076642;28;20196;-61
2022/04/27 06:02:22;;;;;;;1.20;1.20;;;10.90;99.90;;;;;;5074119;28;20219;-62
2022/04/27 06:04:49;;;;;;;1.30;1.30;;;11.00;99.90;;;;;;5080458;28;20719;-62
2022/04/27 06:07:16;;;;;;;1.30;1.30;;;10.90;99.90;;;;;;5078324;28;20696;-61
2022/04/27 06:09:43;;;;;;;1.60;1.60;;;10.90;99.90;;;;;;5079281;28;20291;-62
2022/04/27 06:12:10;;;;;;;1.60;1.60;;;11.00;99.90;;;;;;5079235;28;20223;-62
2022/04/27 06:14:38;;;;;;;1.50;1.50;;;11.00;99.90;;;;;;5077729;28;20227;-62
2022/04/27 06:17:05;;;;;;;1.27;1.27;;;11.00;99.90;;;;;;5066951;28;20191;-60
2022/04/27 06:19:35;;;;;;;1.60;1.50;;;11.00;99.90;;;;;;5074299;28;20207;-62
2022/04/27 06:22:02;;;;;;;1.60;1.50;;;11.00;99.90;;;;;;5068497;28;20226;-61
2022/04/27 06:24:29;;;;;;;1.50;1.50;;;11.00;99.90;;;;;;5074854;28;20314;-60
2022/04/27 06:26:56;;;;;;;1.50;1.50;;;11.00;99.90;;;;;;5066849;28;20201;-61
2022/04/27 06:29:23;;;;;;;1.50;1.50;;;11.10;99.90;;;;;;5075091;28;20207;-61
2022/04/27 06:31:51;;;;;;;1.50;1.50;;;11.10;99.90;;;;;;5076731;28;20257;-61
2022/04/27 06:34:18;;;;;;;1.47;1.47;;;11.20;99.90;;;;;;5068663;28;20219;-62
2022/04/27 06:36:46;;;;;;;1.53;1.53;;;11.30;99.90;;;;;;5074523;28;20238;-62
2022/04/27 06:39:15;;;;;;;1.70;1.60;;;11.30;99.90;;;;;;5066728;28;20206;-61
2022/04/27 06:41:42;;;;;;;1.80;1.70;;;11.40;99.90;;;;;;5071993;28;20261;-62
2022/04/27 06:44:13;;;;;;;1.80;1.70;;;11.30;99.90;;;;;;5073774;28;20219;-62
2022/04/27 06:46:39;;;;;;;2.30;2.20;;;11.40;99.90;;;;;;5073456;28;20199;-62
2022/04/27 06:49:06;;;;;;;1.67;1.67;;;11.40;99.90;;;;;;5065412;28;20223;-64
2022/04/27 06:51:33;;;;;;;2.20;2.10;;;11.40;99.90;;;;;;5071998;28;20697;-62
2022/04/27 06:54:02;;;;;;;2.27;2.17;;;11.60;99.90;;;;;;5066312;28;20276;-63
2022/04/27 06:56:29;;;;;;;2.97;2.87;;;11.80;99.90;;;;;;5072052;28;20238;-62
2022/04/27 06:58:56;;;;;;;2.73;2.60;;;11.80;99.90;;;;;;5074927;28;20294;-61
2022/04/27 07:01:23;;;;;;;3.10;3.00;;;11.70;99.90;;;;;;5072287;28;20199;-61
2022/04/27 07:03:53;;;;;;;2.77;2.63;;;11.70;99.90;;;;;;5072023;28;20231;-61
2022/04/27 07:06:21;;;;;;;2.90;2.80;;;11.70;99.90;;;;;;5069572;28;20226;-59
2022/04/27 07:08:48;;;;;;;2.73;2.63;;;11.80;99.90;;;;;;5077379;28;20294;-61
2022/04/27 07:11:17;;;;;;;2.70;2.60;;;11.80;99.90;;;;;;5071461;28;20254;-61
2022/04/27 07:13:43;;;;;;;2.70;2.60;;;11.80;99.90;;;;;;5077474;28;20574;-62
2022/04/27 07:16:10;;;;;;;3.00;2.80;;;11.80;99.90;;;;;;5082062;28;20203;-63
2022/04/27 07:18:37;;;;;;;2.40;2.30;;;11.90;99.90;;;;;;5075326;28;20286;-62
2022/04/27 07:21:08;;;;;;;2.50;2.40;;;12.00;99.90;;;;;;5074561;28;20283;-64
2022/04/27 07:23:35;;;;;;;3.00;2.80;;;12.20;99.90;;;;;;5074782;28;20231;-64
2022/04/27 07:26:02;;;;;;;2.77;2.67;;;12.30;99.90;;;;;;5074237;28;20322;-62
2022/04/27 07:28:30;;;;;;;2.73;2.63;;;12.30;99.90;;;;;;5074214;28;20211;-63
2022/04/27 07:30:57;;;;;;;2.87;2.77;;;12.30;99.90;;;;;;5074427;28;20302;-62
2022/04/27 07:33:24;;;;;;;2.47;2.37;;;12.40;99.90;;;;;;5074675;28;20210;-62
2022/04/27 07:35:51;;;;;;;2.70;2.60;;;12.50;99.90;;;;;;5074303;28;20223;-62
2022/04/27 07:38:18;;;;;;;2.70;2.60;;;12.50;99.90;;;;;;5073642;28;20266;-63
2022/04/27 07:40:45;;;;;;;2.73;2.63;;;12.50;99.90;;;;;;5073804;28;20206;-61
2022/04/27 07:43:12;;;;;;;2.40;2.30;;;12.30;99.90;;;;;;5075156;28;20195;-62
2022/04/27 07:45:43;;;;;;;2.40;2.30;;;12.50;99.90;;;;;;5075614;28;20219;-61
2022/04/27 07:48:11;;;;;;;2.60;2.50;;;12.50;99.90;;;;;;5073602;28;20203;-62
2022/04/27 07:50:38;;;;;;;2.30;2.20;;;12.50;99.90;;;;;;5074322;28;20294;-61
2022/04/27 07:53:05;;;;;;;2.33;2.23;;;12.70;99.90;;;;;;5073972;28;20259;-60
2022/04/27 07:55:32;;;;;;;2.70;2.60;;;12.70;99.90;;;;;;5073321;28;20699;-61
2022/04/27 07:57:58;;;;;;;2.50;2.40;;;12.70;99.90;;;;;;5073690;28;20265;-62
2022/04/27 08:00:26;;;;;;;3.10;3.00;;;12.70;99.90;;;;;;5074299;28;20230;-63
2022/04/27 08:02:54;;;;;;;3.00;2.90;;;12.70;99.90;;;;;;5073191;28;20203;-63
2022/04/27 08:05:22;;;;;;;2.80;2.70;;;12.70;99.90;;;;;;5073348;28;20257;-61
2022/04/27 08:07:49;;;;;;;2.80;2.70;;;12.60;99.90;;;;;;5073337;28;20565;-61
2022/04/27 08:10:17;;;;;;;2.70;2.60;;;12.70;99.90;;;;;;5073792;28;20238;-61
2022/04/27 08:12:48;;;;;;;2.53;2.43;;;12.70;99.90;;;;;;5077002;28;20309;-61
2022/04/27 08:15:15;;;;;;;2.30;2.20;;;12.70;99.90;;;;;;5084823;28;20227;-63
2022/04/27 08:17:55;;;;;;;2.20;2.10;;;12.70;99.90;;;;;;5081434;28;20233;-61
2022/04/27 08:23:08;;;;;;;2.40;2.30;;;12.80;99.90;;;;;;5074878;28;20256;-60
2022/04/27 08:25:36;;;;;;;2.20;2.10;;;12.70;99.90;;;;;;5075359;28;20223;-62
2022/04/27 08:28:06;;;;;;;2.10;2.00;;;12.80;99.90;;;;;;5074167;28;20260;-63
2022/04/27 08:30:34;;;;;;;2.13;2.03;;;12.80;99.90;;;;;;5073726;28;20209;-63
2022/04/27 08:33:02;;;;;;;2.30;2.20;;;12.70;99.90;;;;;;5073678;28;20219;-60
2022/04/27 08:35:31;;;;;;;2.20;2.10;;;12.70;99.90;;;;;;5073248;28;20234;-62
2022/04/27 08:37:58;;;;;;;2.00;1.90;;;12.80;99.90;;;;;;5072756;28;20217;-62
2022/04/27 08:40:25;;;;;;;2.10;2.00;;;12.90;99.90;;;;;;5073049;28;20372;-62
2022/04/27 08:42:53;;;;;;;2.10;1.90;;;13.10;99.90;;;;;;5073242;28;20203;-62
2022/04/27 08:45:21;;;;;;;2.17;2.07;;;13.10;99.90;;;;;;5072951;28;20220;-62
2022/04/27 08:47:49;;;;;;;1.60;1.60;;;13.20;99.90;;;;;;5072371;28;20317;-61
2022/04/27 08:50:18;;;;;;;1.90;1.80;;;13.40;99.90;;;;;;5073343;28;20669;-62
2022/04/27 08:52:46;;;;;;;1.90;1.80;;;13.50;99.90;;;;;;5074998;28;20309;-60
2022/04/27 08:55:13;;;;;;;1.63;1.60;;;13.60;99.90;;;;;;5074679;28;20265;-61
2022/04/27 08:57:41;;;;;;;2.00;1.90;;;13.60;99.90;;;;;;5073078;28;20271;-61
2022/04/27 09:00:09;;;;;;;1.97;1.87;;;13.60;99.90;;;;;;5073772;28;20298;-61
2022/04/27 09:02:36;;;;;;;1.90;1.80;;;13.60;99.90;;;;;;5073199;28;20290;-61
2022/04/27 09:05:11;;;;;;;2.03;1.93;;;13.70;99.90;;;;;;5073370;28;20234;-61
2022/04/27 09:07:44;;;;;;;1.90;1.80;;;13.70;99.90;;;;;;5073554;28;20234;-60
2022/04/27 09:10:12;;;;;;;1.70;1.60;;;13.90;99.90;;;;;;5072471;28;20695;-63
2022/04/27 09:12:45;;;;;;;1.60;1.50;;;13.90;99.90;;;;;;5073057;28;20262;-61
2022/04/27 09:15:13;;;;;;;1.90;1.80;;;14.00;99.90;;;;;;5075251;28;20284;-61
2022/04/27 09:23:23;;;;;;;1.60;1.50;;;14.30;99.90;;;;;;5078437;28;20242;-61
2022/04/27 09:25:51;;;;;;;1.30;1.30;;;14.30;99.90;;;;;;5077673;28;20233;-63
2022/04/27 09:28:22;;;;;;;1.37;1.37;;;14.50;99.90;;;;;;5078030;28;20285;-60
2022/04/27 09:30:49;;;;;;;1.40;1.40;;;14.60;99.90;;;;;;5078218;28;20211;-61
2022/04/27 09:33:31;;;;;;;1.83;1.73;;;14.80;99.90;;;;;;5076461;28;20229;-63
2022/04/27 09:35:58;;;;;;;1.50;1.40;;;14.80;99.90;;;;;;5076155;28;20218;-60
2022/04/27 09:38:27;;;;;;;1.10;1.10;;;14.70;99.90;;;;;;5076071;28;20203;-60
2022/04/27 09:40:57;;;;;;;0.93;0.93;;;14.70;99.90;;;;;;5076458;28;20200;-61
2022/04/27 09:43:44;;;;;;;1.27;1.27;;;14.70;99.90;;;;;;5076539;28;20226;-61
2022/04/27 09:46:16;;;;;;;1.10;1.10;;;14.70;99.90;;;;;;5076362;28;20249;-61
2022/04/27 09:48:46;;;;;;;1.20;1.20;;;14.80;99.90;;;;;;5075006;28;20210;-61
2022/04/27 09:51:14;;;;;;;0.90;0.90;;;14.90;99.90;;;;;;5076129;28;20203;-61
2022/04/27 09:53:43;;;;;;;1.10;1.10;;;15.00;99.90;;;;;;5076006;28;20223;-62
2022/04/27 09:56:13;;;;;;;1.10;1.10;;;15.00;99.90;;;;;;5076384;28;20207;-61
2022/04/27 09:58:44;;;;;;;1.20;1.20;;;15.20;99.90;;;;;;5075247;28;20214;-61
2022/04/27 10:01:14;;;;;;;1.10;1.10;;;15.40;99.90;;;;;;5078532;28;20211;-62
2022/04/27 10:03:42;;;;;;;0.90;0.90;;;15.50;99.90;;;;;;5075993;28;20268;-62
2022/04/27 10:06:09;;;;;;;1.10;1.10;;;15.60;99.90;;;;;;5075598;28;20773;-62
2022/04/27 10:08:39;;;;;;;1.00;1.00;;;15.60;99.90;;;;;;5075700;28;20205;-62
2022/04/27 10:11:09;;;;;;;0.90;0.90;;;15.70;99.90;;;;;;5076086;28;20246;-62
2022/04/27 10:13:38;;;;;;;1.00;1.00;;;15.90;99.90;;;;;;5075514;28;20281;-62
2022/04/27 10:16:06;;;;;;;0.80;0.80;;;16.00;99.90;;;;;;5075120;28;20314;-62
2022/04/27 10:18:33;;;;;;;1.00;1.00;;;16.00;99.90;;;;;;5073003;28;20199;-61
2022/04/27 10:21:02;;;;;;;1.10;1.10;;;16.00;99.90;;;;;;5075474;28;20274;-62
2022/04/27 10:23:31;;;;;;;1.00;1.00;;;15.80;99.90;;;;;;5076748;28;20203;-62
2022/04/27 10:26:09;;;;;;;0.93;0.93;;;16.00;99.90;;;;;;5076081;28;20223;-62
2022/04/27 10:28:38;;;;;;;0.97;0.97;;;16.50;99.90;;;;;;5075720;28;20298;-62
2022/04/27 10:31:07;;;;;;;0.70;0.70;;;16.90;99.90;;;;;;5075485;28;20238;-62
2022/04/27 10:33:41;;;;;;;0.80;0.80;;;17.20;99.90;;;;;;5075172;28;20223;-62
2022/04/27 10:36:37;;;;;;;2.30;0.90;;;17.50;99.90;;;;;;5074873;28;20207;-63
2022/04/27 10:39:19;;;;;;;0.70;0.70;;;17.50;99.90;;;;;;5074327;28;20720;-63
2022/04/27 10:41:55;;;;;;;0.63;0.63;;;17.20;99.90;;;;;;5074897;28;20298;-62
2022/04/27 10:44:22;;;;;;;0.70;0.70;;;17.20;99.90;;;;;;5074522;28;20234;-63
2022/04/27 10:46:49;;;;;;;0.70;0.70;;;17.10;99.90;;;;;;5074716;28;20203;-63
2022/04/27 10:49:23;;;;;;;0.60;0.60;;;17.00;99.90;;;;;;5074078;28;20207;-62
2022/04/27 10:52:01;;;;;;;0.60;0.60;;;16.80;99.90;;;;;;5076238;28;20359;-62
2022/04/27 10:54:28;;;;;;;0.90;0.90;;;16.90;99.90;;;;;;5074461;28;20241;-63
2022/04/27 10:57:17;;;;;;;0.80;0.80;;;16.70;99.90;;;;;;5074460;28;20290;-61
2022/04/27 10:59:44;;;;;;;0.90;0.90;;;16.70;99.90;;;;;;5089284;22;20744;-70
2022/04/27 11:02:32;;;;;;;0.63;0.63;;;16.70;99.90;;;;;;5099997;28;20215;-66
2022/04/27 11:05:00;;;;;;;0.50;0.50;;;16.70;99.90;;;;;;5119208;28;20202;-69
2022/04/27 11:07:38;;;;;;;0.60;0.60;;;16.80;99.90;;;;;;5112861;28;20194;-70
2022/04/27 11:10:15;;;;;;;0.50;0.50;;;16.80;99.90;;;;;;5101121;28;20743;-66
2022/04/27 11:12:46;;;;;;;0.60;0.60;;;16.90;99.90;;;;;;5074513;28;20230;-68
2022/04/27 11:15:17;;;;;;;1.13;0.80;;;16.90;99.90;;;;;;5074041;28;20203;-66
2022/04/27 11:17:44;;;;;;;0.50;0.50;;;16.80;99.90;;;;;;5071345;28;20238;-68
2022/04/27 11:20:29;;;;;;;0.80;0.80;;;16.90;99.90;;;;;;5074191;28;20270;-67
2022/04/27 11:22:56;;;;;;;0.60;0.60;;;16.90;99.90;;;;;;5073869;28;20219;-67
2022/04/27 11:25:25;;;;;;;0.60;0.60;;;16.90;99.90;;;;;;5074192;28;20290;-68
2022/04/27 11:27:53;;;;;;;0.40;0.40;;;17.00;99.90;;;;;;5073336;28;20260;-68
2022/04/27 11:30:21;;;;;;;0.60;0.60;;;17.00;99.90;;;;;;5074136;28;20230;-69
2022/04/27 11:32:49;;;;;;;0.50;0.50;;;17.20;99.90;;;;;;5073466;28;20322;-67
2022/04/27 11:35:16;;;;;;;0.67;0.50;;;17.20;99.90;;;;;;5073584;28;20207;-68
2022/04/27 11:37:44;;;;;;;0.60;0.60;;;17.50;99.90;;;;;;5072242;28;20234;-68
2022/04/27 11:40:16;;;;;;;0.70;0.70;;;17.70;99.90;;;;;;5073730;28;20721;-67
2022/04/27 11:42:46;;;;;;;0.63;0.63;;;17.80;99.90;;;;;;5073083;28;20203;-67
2022/04/27 11:45:18;;;;;;;0.60;0.60;;;17.90;99.90;;;;;;5073054;28;20206;-68
2022/04/27 11:47:55;;;;;;;0.50;0.50;;;17.90;99.90;;;;;;5072529;28;20241;-68
2022/04/27 11:50:22;;;;;;;0.70;0.70;;;18.00;99.90;;;;;;5073003;28;20229;-67
2022/04/27 11:52:58;;;;;;;0.53;0.53;;;18.10;99.90;;;;;;5072797;28;20231;-69
2022/04/27 11:55:25;;;;;;;0.50;0.50;;;18.10;99.90;;;;;;5072593;28;20294;-66
2022/04/27 11:57:52;;;;;;;0.60;0.60;;;18.10;99.90;;;;;;5072487;28;20219;-66
2022/04/27 12:00:22;;;;;;;0.90;0.90;;;18.00;99.90;;;;;;5073051;28;20239;-70
2022/04/27 12:02:49;;;;;;;0.67;0.67;;;17.80;99.90;;;;;;5073004;28;20239;-68
2022/04/27 12:05:16;;;;;;;0.70;0.70;;;17.70;99.90;;;;;;5072936;28;20265;-68
2022/04/27 12:07:49;;;;;;;0.60;0.60;;;17.50;99.90;;;;;;5072434;28;20226;-69
2022/04/27 12:10:16;;;;;;;0.77;0.77;;;17.50;99.90;;;;;;5073161;28;20238;-68
2022/04/27 12:12:44;;;;;;;0.90;0.90;;;17.50;99.90;;;;;;5072801;28;20313;-67
2022/04/27 12:15:13;;;;;;;0.70;0.70;;;17.70;99.90;;;;;;5072518;28;20238;-68
2022/04/27 12:17:48;;;;;;;0.70;0.70;;;17.70;99.90;;;;;;5069860;28;20206;-67
2022/04/27 12:20:37;;;;;;;0.57;0.57;;;17.70;99.90;;;;;;5072194;28;20261;-67
2022/04/27 12:23:07;;;;;;;0.60;0.60;;;17.70;99.90;;;;;;5073428;28;20284;-67
2022/04/27 12:25:41;;;;;;;0.60;0.60;;;17.70;99.90;;;;;;5052495;28;20493;-67
2022/04/27 12:28:11;;;;;;;0.70;0.70;;;17.90;99.90;;;;;;5051171;28;20204;-67
2022/04/27 12:30:42;;;;;;;0.70;0.70;;;18.00;99.90;;;;;;5055713;28;20254;-68
2022/04/27 12:33:11;;;;;;;0.63;0.63;;;18.10;99.90;;;;;;5063832;28;20709;-68
2022/04/27 12:38:25;;;;;;;0.60;0.60;;;18.00;99.90;;;;;;5071597;28;20198;-69
2022/04/27 12:40:52;;;;;;;0.70;0.70;;;17.90;99.90;;;;;;5072200;28;20251;-67
2022/04/27 12:43:22;;;;;;;0.60;0.57;;;17.80;99.90;;;;;;5042836;28;20233;-67
2022/04/27 12:46:10;;;;;;;0.60;0.60;;;17.90;99.90;;;;;;5048838;28;20212;-67
2022/04/27 12:48:39;;;;;;;0.60;0.60;;;17.90;99.90;;;;;;5035693;28;20292;-66
2022/04/27 12:51:08;;;;;;;0.70;0.70;;;17.80;99.90;;;;;;5030489;28;20232;-66
2022/04/27 12:53:36;;;;;;;0.70;0.70;;;17.70;99.90;;;;;;5030211;28;20224;-67
2022/04/27 12:56:06;;;;;;;0.57;0.57;;;17.80;99.90;;;;;;5030464;28;20210;-67
2022/04/27 12:58:33;;;;;;;0.57;0.57;;;18.00;99.90;;;;;;5029521;28;20295;-69
2022/04/27 13:01:00;;;;;;;0.53;0.53;;;18.00;99.90;;;;;;5029630;28;20263;-69
2022/04/27 13:03:27;;;;;;;0.60;0.60;;;18.10;99.90;;;;;;5030293;28;20287;-67
2022/04/27 13:05:56;;;;;;;0.60;0.60;;;18.00;99.90;;;;;;5030257;28;20223;-68
2022/04/27 13:08:23;;;;;;;0.70;0.70;;;17.90;99.90;;;;;;5030128;28;20828;-67
2022/04/27 13:13:36;;;;;;;0.60;0.60;;;17.90;99.90;;;;;;5030490;28;20606;-67
2022/04/27 13:16:03;;;;;;;0.80;0.80;;;17.90;99.90;;;;;;5030152;28;20208;-68
2022/04/27 13:18:30;;;;;;;0.70;0.70;;;17.80;99.90;;;;;;5029199;28;20647;-67
2022/04/27 13:20:58;;;;;;;0.87;0.87;;;17.70;99.90;;;;;;5030124;28;20234;-66